Time;durP1;ratioP1;P1;durP2;ratioP2;P2;SDS_P1;SDS_P2;PMS_P1;PMS_P2;Temp;Humidity;BMP_temperature;BMP_pressure;BME280_temperature;BME280_humidity;BME280_pressure;Samples;Min_cycle;Max_cycle;Signal;HPM_P1;HPM_P2
2021/04/01 00:00:15;;;;;;;20.48;15.23;;;;;;;7.44;68.17;100954.53;5035917;28;20025;-67
2021/04/01 00:02:42;;;;;;;23.17;14.60;;;;;;;7.29;68.08;100947.41;5044314;28;20036;-68
2021/04/01 00:05:08;;;;;;;19.13;14.70;;;;;;;7.19;68.24;100943.84;5037067;28;20039;-68
2021/04/01 00:07:34;;;;;;;23.42;15.65;;;;;;;7.09;69.27;100943.72;5032076;28;20103;-69
2021/04/01 00:09:59;;;;;;;21.20;14.65;;;;;;;6.98;69.41;100944.50;5048087;28;20116;-68
2021/04/01 00:12:25;;;;;;;19.98;13.07;;;;;;;6.98;69.07;100949.75;5028603;28;20025;-68
2021/04/01 00:14:50;;;;;;;17.10;13.57;;;;;;;6.90;69.37;100951.41;5018067;28;20024;-68
2021/04/01 00:17:15;;;;;;;19.63;14.50;;;;;;;6.85;69.10;100946.13;5049422;28;20040;-68
2021/04/01 00:19:41;;;;;;;19.95;14.10;;;;;;;6.76;69.46;100946.91;5034657;28;20029;-67
2021/04/01 00:22:06;;;;;;;18.15;15.18;;;;;;;6.71;69.76;100940.72;5032994;28;20033;-68
2021/04/01 00:24:32;;;;;;;19.35;14.48;;;;;;;6.76;69.96;100939.03;5048296;28;20061;-68
2021/04/01 00:26:57;;;;;;;18.83;13.43;;;;;;;6.70;69.51;100931.09;5027189;28;20107;-67
2021/04/01 00:29:23;;;;;;;18.00;13.80;;;;;;;6.57;70.03;100929.22;5030747;28;20476;-67
2021/04/01 00:31:48;;;;;;;21.52;14.90;;;;;;;6.46;70.51;100931.69;5029997;28;20017;-67
2021/04/01 00:34:14;;;;;;;19.20;13.98;;;;;;;6.38;70.44;100940.34;5049890;28;20024;-67
2021/04/01 00:36:39;;;;;;;17.85;13.93;;;;;;;6.41;70.78;100936.88;5032319;28;20048;-66
2021/04/01 00:39:05;;;;;;;21.90;14.95;;;;;;;6.43;70.17;100932.53;5048235;28;20032;-67
2021/04/01 00:41:30;;;;;;;20.45;14.00;;;;;;;6.32;70.01;100923.66;5032357;28;20021;-67
2021/04/01 00:43:55;;;;;;;15.90;13.05;;;;;;;6.13;70.09;100931.28;5036057;28;20040;-68
2021/04/01 00:46:21;;;;;;;19.50;14.50;;;;;;;6.10;71.02;100929.50;5041501;28;20029;-68
2021/04/01 00:48:46;;;;;;;22.65;16.33;;;;;;;6.10;70.78;100929.50;5048349;28;20036;-67
2021/04/01 00:51:11;;;;;;;20.92;14.73;;;;;;;6.09;70.69;100932.09;5050866;28;20040;-67
2021/04/01 00:53:36;;;;;;;21.17;15.38;;;;;;;6.01;70.75;100926.72;5049804;28;20095;-67
2021/04/01 00:56:02;;;;;;;20.40;14.30;;;;;;;6.07;71.99;100928.59;5010452;28;20036;-68
2021/04/01 00:58:28;;;;;;;20.77;15.27;;;;;;;6.15;71.96;100924.34;5033762;28;20029;-68
2021/04/01 01:03:49;;;;;;;23.33;16.92;;;;;;;6.01;71.42;100924.97;4961711;28;20537;-67
2021/04/01 01:06:14;;;;;;;25.20;16.92;;;;;;;6.08;71.02;100926.00;5040091;28;20048;-67
2021/04/01 01:08:39;;;;;;;18.20;14.52;;;;;;;5.98;70.81;100924.97;5031341;28;20036;-67
2021/04/01 01:11:05;;;;;;;18.35;14.55;;;;;;;5.92;70.99;100922.25;5032993;28;20376;-67
2021/04/01 01:13:31;;;;;;;20.98;14.77;;;;;;;6.01;70.98;100917.13;5051450;28;20396;-67
2021/04/01 01:15:56;;;;;;;21.85;16.30;;;;;;;6.08;72.00;100910.28;5030687;28;20116;-67
2021/04/01 01:18:22;;;;;;;23.52;16.73;;;;;;;6.30;72.01;100907.91;5030340;28;20111;-67
2021/04/01 01:20:47;;;;;;;19.33;14.25;;;;;;;6.25;70.42;100901.75;5013014;28;20060;-67
2021/04/01 01:23:12;;;;;;;19.95;13.98;;;;;;;6.04;70.32;100908.47;5026396;28;20181;-68
2021/04/01 01:25:38;;;;;;;20.08;14.45;;;;;;;5.91;71.07;100912.63;5035696;28;20496;-67
2021/04/01 01:28:05;;;;;;;23.23;15.50;;;;;;;6.00;71.37;100902.28;5050803;28;20025;-68
2021/04/01 01:30:32;;;;;;;22.83;16.38;;;;;;;6.11;71.17;100899.81;5040412;28;20392;-67
2021/04/01 01:33:01;;;;;;;22.02;15.77;;;;;;;6.24;71.34;100895.63;5052126;28;20029;-67
2021/04/01 01:35:30;;;;;;;19.52;13.57;;;;;;;6.44;69.88;100891.50;5049309;28;20044;-67
2021/04/01 01:37:58;;;;;;;17.42;12.43;;;;;;;6.37;69.40;100890.56;5033253;28;20122;-67
2021/04/01 01:40:25;;;;;;;20.05;13.88;;;;;;;6.08;69.42;100888.44;5030419;28;20111;-68
2021/04/01 01:42:52;;;;;;;21.45;14.88;;;;;;;5.94;70.27;100896.97;5031776;28;20571;-68
2021/04/01 01:45:17;;;;;;;21.48;15.13;;;;;;;5.88;71.39;100892.53;5026685;28;20237;-68
2021/04/01 01:47:43;;;;;;;24.27;16.27;;;;;;;6.02;71.66;100890.09;5025898;28;20136;-68
2021/04/01 01:50:15;;;;;;;22.15;15.52;;;;;;;6.02;71.50;100895.34;5021445;28;20392;-68
2021/04/01 01:52:41;;;;;;;27.40;16.10;;;;;;;6.03;71.27;100894.50;5047393;28;20028;-67
2021/04/01 01:55:08;;;;;;;19.52;15.00;;;;;;;5.97;71.22;100898.75;5026924;28;20025;-67
2021/04/01 01:57:37;;;;;;;20.63;14.80;;;;;;;5.85;71.38;100892.47;5023014;28;20021;-67
2021/04/01 02:00:08;;;;;;;19.13;14.93;;;;;;;5.76;71.59;100888.00;5027354;28;20477;-69
2021/04/01 02:02:33;;;;;;;19.63;14.90;;;;;;;5.73;71.89;100882.72;5013202;28;20032;-68
2021/04/01 02:04:59;;;;;;;24.17;14.95;;;;;;;5.73;72.14;100887.06;5033673;28;20569;-68
2021/04/01 02:07:24;;;;;;;20.95;14.80;;;;;;;5.67;71.07;100893.06;5028583;28;20044;-68
2021/04/01 02:09:49;;;;;;;21.90;15.63;;;;;;;5.63;72.04;100886.94;5044966;28;20052;-69
2021/04/01 02:12:15;;;;;;;20.45;14.30;;;;;;;5.63;72.32;100883.44;5023743;28;20531;-68
2021/04/01 02:14:43;;;;;;;20.75;14.98;;;;;;;5.70;72.06;100880.03;5024053;28;20084;-69
2021/04/01 02:17:11;;;;;;;22.55;15.07;;;;;;;5.76;72.36;100874.91;5039332;28;20091;-68
2021/04/01 02:19:36;;;;;;;22.10;15.38;;;;;;;5.77;72.34;100879.28;5038996;28;20021;-68
2021/04/01 02:22:01;;;;;;;22.85;15.40;;;;;;;5.91;72.65;100873.38;5030328;28;20029;-68
2021/04/01 02:24:27;;;;;;;21.10;14.57;;;;;;;6.10;71.64;100876.25;5022366;28;20017;-68
2021/04/01 02:26:56;;;;;;;19.83;15.38;;;;;;;6.21;71.35;100874.66;5040142;28;20048;-67
2021/04/01 02:29:22;;;;;;;21.65;14.25;;;;;;;6.28;70.71;100872.97;5010892;28;20417;-68
2021/04/01 02:31:48;;;;;;;17.65;13.68;;;;;;;6.27;70.02;100873.84;5016817;28;20079;-67
2021/04/01 02:34:14;;;;;;;21.15;14.00;;;;;;;6.13;70.09;100860.56;5042338;28;20404;-67
2021/04/01 02:36:39;;;;;;;20.98;15.02;;;;;;;6.00;70.54;100868.22;5030875;28;20117;-67
2021/04/01 02:39:05;;;;;;;21.65;16.27;;;;;;;5.96;71.19;100866.44;5041222;28;20053;-67
2021/04/01 02:41:30;;;;;;;24.23;16.02;;;;;;;5.89;70.96;100862.88;5020046;28;20063;-68
2021/04/01 02:43:55;;;;;;;23.23;14.73;;;;;;;5.89;71.25;100872.44;5029072;28;20025;-68
2021/04/01 02:46:21;;;;;;;25.02;15.15;;;;;;;5.79;71.75;100866.22;5045529;28;20124;-69
2021/04/01 02:48:46;;;;;;;18.27;14.63;;;;;;;5.82;71.63;100866.25;5041938;28;20031;-68
2021/04/01 02:51:11;;;;;;;18.70;13.63;;;;;;;5.96;71.68;100863.81;5047654;28;20039;-69
2021/04/01 02:53:37;;;;;;;18.27;14.50;;;;;;;6.11;70.93;100864.91;5028490;28;20021;-67
2021/04/01 02:56:02;;;;;;;20.45;14.15;;;;;;;6.11;70.40;100862.28;5048454;28;20534;-69
2021/04/01 02:58:28;;;;;;;19.73;14.35;;;;;;;5.96;71.00;100852.47;5029031;28;20087;-68
2021/04/01 03:00:53;;;;;;;17.42;13.23;;;;;;;5.85;71.15;100845.38;5032593;28;20071;-68
2021/04/01 03:03:21;;;;;;;18.60;13.68;;;;;;;5.86;72.07;100856.69;5035707;28;20021;-69
2021/04/01 03:05:47;;;;;;;24.13;15.57;;;;;;;5.85;72.30;100857.56;5034572;28;20031;-68
2021/04/01 03:08:12;;;;;;;19.58;14.82;;;;;;;5.86;71.92;100852.34;5032282;28;20032;-68
2021/04/01 03:10:38;;;;;;;24.38;15.05;;;;;;;5.82;71.78;100857.50;5031749;28;20500;-68
2021/04/01 03:13:04;;;;;;;22.55;14.07;;;;;;;5.71;71.90;100852.16;5047319;28;20476;-67
2021/04/01 03:15:29;;;;;;;17.73;13.82;;;;;;;5.71;72.51;100852.16;5038001;28;20040;-67
2021/04/01 03:17:55;;;;;;;21.98;16.10;;;;;;;5.76;71.86;100853.06;5031950;28;20033;-67
2021/04/01 03:20:20;;;;;;;23.40;15.65;;;;;;;5.72;72.89;100851.28;5022012;28;20076;-67
2021/04/01 03:22:45;;;;;;;22.15;15.85;;;;;;;5.74;73.03;100847.81;5044408;28;20102;-68
2021/04/01 03:25:12;;;;;;;21.30;15.20;;;;;;;5.89;73.06;100846.28;5032060;28;20035;-68
2021/04/01 03:27:38;;;;;;;19.67;14.50;;;;;;;6.04;72.03;100853.50;5031734;28;20111;-67
2021/04/01 03:30:06;;;;;;;21.73;14.95;;;;;;;5.94;71.67;100855.09;5029832;28;20136;-68
2021/04/01 03:32:47;;;;;;;19.60;14.32;;;;;;;5.74;71.79;100857.44;5049299;28;20036;-68
2021/04/01 03:35:15;;;;;;;17.02;12.70;;;;;;;5.65;72.17;100860.78;5045827;28;20036;-68
2021/04/01 03:37:41;;;;;;;21.55;14.70;;;;;;;5.64;72.66;100853.81;5048284;28;20120;-69
2021/04/01 03:40:07;;;;;;;21.98;14.45;;;;;;;5.65;73.04;100853.84;5032081;28;20021;-69
2021/04/01 03:42:34;;;;;;;18.25;13.77;;;;;;;5.72;72.47;100854.78;5034368;28;20120;-68
2021/04/01 03:44:59;;;;;;;16.80;14.25;;;;;;;5.70;72.16;100853.00;5032496;28;20499;-67
2021/04/01 03:47:25;;;;;;;16.65;13.32;;;;;;;5.72;71.99;100853.91;5050945;28;20032;-68
2021/04/01 03:49:50;;;;;;;19.85;13.20;;;;;;;5.72;72.49;100846.94;5051447;28;20032;-68
2021/04/01 03:52:16;;;;;;;18.17;13.43;;;;;;;5.78;72.31;100843.53;5053304;28;20044;-68
2021/04/01 03:54:44;;;;;;;20.92;13.82;;;;;;;5.84;72.09;100855.81;5030270;28;20112;-68
2021/04/01 03:57:10;;;;;;;20.63;14.50;;;;;;;5.97;72.87;100851.63;5032957;28;20029;-69
2021/04/01 04:02:17;;;;;;;20.58;14.82;;;;;;;6.15;72.00;100856.22;5051020;28;20037;-69
2021/04/01 04:04:54;;;;;;;19.83;15.13;;;;;;;6.31;71.95;100848.56;5038434;28;20037;-68
2021/04/01 04:07:56;;;;;;;18.20;14.13;;;;;;;6.45;71.41;100854.84;5054749;28;20068;-69
2021/04/01 04:10:29;;;;;;;20.88;15.43;;;;;;;6.60;70.24;100856.72;5044737;28;20037;-68
2021/04/01 04:15:42;;;;;;;21.60;14.23;;;;;;;6.66;70.63;100845.41;5007905;28;20044;-68
2021/04/01 04:18:08;;;;;;;17.30;14.85;;;;;;;6.61;70.70;100841.88;5050428;28;20013;-68
2021/04/01 04:20:33;;;;;;;19.98;13.93;;;;;;;6.67;71.10;100847.19;5037560;28;20064;-68
2021/04/01 04:22:59;;;;;;;20.42;14.48;;;;;;;6.79;70.55;100843.81;5041049;28;20165;-67
2021/04/01 04:25:25;;;;;;;19.92;13.38;;;;;;;6.75;70.89;100845.53;5051175;28;20401;-68
2021/04/01 04:30:35;;;;;;;22.02;14.30;;;;;;;7.05;70.46;100851.03;5038591;28;20090;-68
2021/04/01 04:33:01;;;;;;;17.95;14.90;;;;;;;7.06;70.26;100842.28;5056665;28;20033;-68
2021/04/01 04:35:26;;;;;;;19.83;14.00;;;;;;;7.11;70.14;100847.56;5035183;28;20511;-67
2021/04/01 04:37:51;;;;;;;19.52;13.88;;;;;;;7.06;70.07;100839.66;5049996;28;20059;-69
2021/04/01 04:40:18;;;;;;;18.20;13.98;;;;;;;6.98;69.71;100842.25;5044125;28;20064;-67
2021/04/01 04:42:43;;;;;;;16.00;13.25;;;;;;;7.02;70.07;100848.38;5032113;28;21426;-66
2021/04/01 04:45:09;;;;;;;21.52;13.82;;;;;;;7.05;69.98;100837.91;5055155;28;20716;-67
2021/04/01 04:47:34;;;;;;;20.00;14.90;;;;;;;7.01;70.29;100842.25;5023590;28;20044;-68
2021/04/01 04:50:00;;;;;;;21.02;14.00;;;;;;;7.10;70.66;100836.19;5025121;28;20150;-68
2021/04/01 04:52:26;;;;;;;21.75;13.55;;;;;;;7.14;69.72;100843.22;5032839;28;20104;-67
2021/04/01 04:54:51;;;;;;;20.55;14.93;;;;;;;7.12;70.35;100849.31;5035269;28;20032;-68
2021/04/01 04:57:22;;;;;;;21.83;15.13;;;;;;;7.11;70.51;100845.84;5064580;28;20063;-68
2021/04/01 05:05:26;;;;;;;23.05;15.88;;;;;;;7.23;71.04;100839.78;4987895;28;20037;-68
2021/04/01 05:07:51;;;;;;;21.45;15.10;;;;;;;7.24;71.38;100852.03;5046888;28;20036;-69
2021/04/01 05:10:17;;;;;;;24.10;15.93;;;;;;;7.30;71.37;100843.31;5054351;28;20029;-69
2021/04/01 05:12:43;;;;;;;21.63;14.60;;;;;;;7.35;70.92;100835.50;5036414;28;20033;-69
2021/04/01 05:15:09;;;;;;;20.98;15.48;;;;;;;7.50;70.53;100843.47;5054492;28;20025;-69
2021/04/01 05:17:34;;;;;;;20.52;15.25;;;;;;;7.61;70.36;100840.94;5054316;28;20119;-69
2021/04/01 05:20:03;;;;;;;22.67;15.50;;;;;;;7.63;70.49;100839.19;5050602;28;20100;-68
2021/04/01 05:24:55;;;;;;;20.88;14.88;;;;;;;7.76;70.08;100845.38;5054064;28;20115;-69
2021/04/01 05:30:02;;;;;;;19.40;15.95;;;;;;;7.92;69.64;100833.22;5054102;28;20017;-69
2021/04/01 05:32:29;;;;;;;19.98;14.68;;;;;;;8.06;68.77;100838.53;5053930;28;20032;-69
2021/04/01 05:34:55;;;;;;;24.77;16.08;;;;;;;8.13;68.17;100846.44;5035781;28;20069;-68
2021/04/01 05:37:23;;;;;;;17.83;14.52;;;;;;;8.20;68.42;100848.19;5035450;28;20061;-69
2021/04/01 05:39:50;;;;;;;23.05;17.48;;;;;;;8.13;68.21;100843.81;5033489;28;20400;-69
2021/04/01 05:42:18;;;;;;;24.48;18.60;;;;;;;8.16;68.09;100852.56;5035826;28;20377;-69
2021/04/01 05:44:59;;;;;;;21.92;15.82;;;;;;;8.30;67.71;100855.22;5035891;28;20095;-69
2021/04/01 05:47:34;;;;;;;23.73;16.25;;;;;;;8.56;66.61;100849.22;5038275;28;20032;-68
2021/04/01 05:50:14;;;;;;;22.85;16.48;;;;;;;8.65;66.99;100850.09;5036449;28;20036;-68
2021/04/01 06:05:52;;;;;;;21.73;15.88;;;;;;;9.25;66.57;100844.00;5053552;28;20098;-70
2021/04/01 06:08:20;;;;;;;21.65;16.75;;;;;;;9.27;65.91;100854.53;5027462;28;20025;-70
2021/04/01 06:10:48;;;;;;;26.55;16.15;;;;;;;9.43;65.51;100848.34;5035480;28;20021;-70
2021/04/01 06:13:15;;;;;;;20.95;16.23;;;;;;;9.47;65.74;100851.88;5032318;28;20512;-70
2021/04/01 06:15:46;;;;;;;24.50;16.73;;;;;;;9.62;66.42;100870.28;5035484;28;20029;-70
2021/04/01 06:18:13;;;;;;;22.38;16.63;;;;;;;9.93;64.74;100860.50;5035393;28;20032;-70
2021/04/01 06:20:42;;;;;;;25.48;16.42;;;;;;;10.14;64.27;100860.44;5035293;28;20033;-70
2021/04/01 06:23:07;;;;;;;22.90;16.30;;;;;;;10.29;64.07;100855.97;5034069;28;20056;-70
2021/04/01 06:25:36;;;;;;;22.35;16.63;;;;;;;10.31;64.67;100862.13;5053300;28;20062;-70
2021/04/01 06:28:04;;;;;;;23.02;17.40;;;;;;;10.31;64.57;100870.03;5032825;28;20052;-70
2021/04/01 06:30:37;;;;;;;20.65;17.45;;;;;;;10.42;64.42;100872.63;5034932;28;20071;-70
2021/04/01 06:33:06;;;;;;;20.45;16.52;;;;;;;10.62;63.46;100862.00;5052770;28;20028;-70
2021/04/01 06:35:40;;;;;;;21.33;15.57;;;;;;;10.89;62.37;100862.69;5035477;28;20373;-70
2021/04/01 06:40:55;;;;;;;17.30;14.52;;;;;;;11.31;61.44;100865.88;5035498;28;20029;-70
2021/04/01 06:43:24;;;;;;;22.95;17.35;;;;;;;11.16;62.88;100863.34;5050502;28;20041;-70
2021/04/01 06:45:54;;;;;;;26.75;19.98;;;;;;;10.90;63.62;100864.44;5047682;28;20168;-70
2021/04/01 06:48:22;;;;;;;25.40;18.95;;;;;;;10.65;64.99;100864.63;5032515;28;20029;-70
2021/04/01 06:50:49;;;;;;;22.88;17.70;;;;;;;10.69;64.69;100873.38;5034969;28;20492;-70
2021/04/01 06:53:32;;;;;;;27.30;19.52;;;;;;;10.85;64.13;100865.34;5034641;28;20032;-70
2021/04/01 06:56:09;;;;;;;30.45;20.50;;;;;;;10.81;64.81;100864.50;5052336;28;20025;-70
2021/04/01 06:58:47;;;;;;;32.00;19.95;;;;;;;10.93;64.76;100860.88;5036206;28;20064;-70
2021/04/01 07:01:27;;;;;;;24.90;17.05;;;;;;;11.18;63.71;100858.06;5035742;28;20028;-70
2021/04/01 07:03:56;;;;;;;20.95;16.42;;;;;;;11.54;62.73;100844.53;5028554;28;20515;-70
2021/04/01 07:06:27;;;;;;;22.85;17.48;;;;;;;11.70;62.53;100831.16;5034502;28;20031;-70
2021/04/01 07:09:11;;;;;;;23.67;17.70;;;;;;;11.75;63.09;100814.34;5024622;28;20037;-70
2021/04/01 07:11:39;;;;;;;21.48;16.25;;;;;;;11.93;62.19;100831.75;5036146;28;20029;-71
2021/04/01 07:14:13;;;;;;;21.83;17.70;;;;;;;12.15;61.02;100865.91;5020999;28;20518;-70
2021/04/01 07:19:44;;;;;;;22.08;16.27;;;;;;;12.26;59.89;100893.94;5031778;28;20063;-71
2021/04/01 07:22:39;;;;;;;25.20;16.13;;;;;;;12.38;60.03;100883.22;5051920;28;20036;-70
2021/04/01 07:45:04;;;;;;;23.08;18.10;;;;;;;15.76;51.43;100850.78;5032294;28;20179;-70
2021/04/01 07:47:49;;;;;;;17.85;15.18;;;;;;;15.18;52.46;100859.41;5045596;28;20119;-70
2021/04/01 07:50:20;;;;;;;19.33;14.82;;;;;;;14.84;53.54;100854.03;5033055;28;20583;-70
2021/04/01 07:52:54;;;;;;;19.52;13.70;;;;;;;14.79;53.64;100852.38;5051280;28;20033;-70
2021/04/01 08:00:36;;;;;;;24.90;19.95;;;;;;;15.95;51.61;100840.56;5049243;28;20454;-70
2021/04/01 08:05:33;;;;;;;;;;;;;;;16.41;50.98;100850.75;5035125;28;20055;-70
2021/04/01 08:08:07;;;;;;;19.27;13.35;;;;;;;16.52;50.67;100856.59;5033351;28;19996;-70
2021/04/01 08:10:39;;;;;;;18.52;14.32;;;;;;;16.62;50.63;100867.84;5029300;28;20033;-69
2021/04/01 08:13:10;;;;;;;20.88;15.05;;;;;;;16.61;49.51;100881.19;5031510;28;20036;-70
2021/04/01 08:15:43;;;;;;;19.33;13.95;;;;;;;16.62;49.03;100866.94;5033855;28;20063;-70
2021/04/01 08:20:36;;;;;;;23.48;13.90;;;;;;;16.89;48.32;100864.31;5048502;28;20408;-70
2021/04/01 08:25:41;;;;;;;15.25;12.48;;;;;;;16.70;48.66;100843.59;5034041;28;20029;-70
2021/04/01 08:28:24;;;;;;;20.00;15.93;;;;;;;16.72;48.30;100844.44;5045606;28;20135;-70
2021/04/01 08:31:23;;;;;;;19.23;13.75;;;;;;;16.84;47.19;100851.13;5030140;28;20468;-70
2021/04/01 08:36:36;;;;;;;80.40;43.00;;;;;;;16.65;49.27;100795.84;5039987;28;20403;-70
2021/04/01 08:39:02;;;;;;;40.30;24.27;;;;;;;16.65;49.10;100760.34;5035804;28;20032;-70
2021/04/01 08:41:34;;;;;;;25.48;16.08;;;;;;;16.92;49.70;100784.31;5036968;28;20074;-70
2021/04/01 08:44:19;;;;;;;19.77;13.98;;;;;;;17.13;49.68;100824.47;5054818;28;20036;-70
2021/04/01 08:47:05;;;;;;;22.55;16.73;;;;;;;17.15;49.35;100857.28;5036414;28;20111;-70
2021/04/01 08:49:35;;;;;;;21.13;16.17;;;;;;;17.08;49.28;100856.63;5036954;28;20087;-70
2021/04/01 08:52:42;;;;;;;18.27;13.20;;;;;;;17.04;47.41;100850.50;5037066;28;20044;-70
2021/04/01 15:43:33;;;;;;;40.00;29.02;;;;;;;20.12;38.09;100795.66;5113702;27;20938;-68
2021/04/01 15:45:58;;;;;;;49.38;31.40;;;;;;;20.07;37.37;100774.47;5091178;28;20028;-66
2021/04/01 15:48:25;;;;;;;41.50;28.67;;;;;;;20.76;36.95;100795.25;5091526;28;20028;-68
2021/04/01 15:50:50;;;;;;;45.63;31.88;;;;;;;20.95;37.01;100805.97;5077624;28;20032;-68
2021/04/01 15:53:17;;;;;;;45.33;32.45;;;;;;;21.24;36.39;100800.06;5079670;28;20054;-66
2021/04/01 15:55:47;;;;;;;48.30;32.92;;;;;;;20.94;36.93;100812.25;5072449;28;20115;-68
2021/04/01 15:58:12;;;;;;;49.25;32.63;;;;;;;20.63;37.80;100811.09;5072096;28;20387;-68
2021/04/01 16:00:39;;;;;;;48.75;29.02;;;;;;;20.34;39.33;100827.63;5079553;28;20028;-68
2021/04/01 16:03:06;;;;;;;48.95;28.90;;;;;;;19.83;41.06;100828.16;5071587;28;20090;-67
2021/04/01 16:05:31;;;;;;;38.22;26.83;;;;;;;19.40;42.73;100836.31;5076013;28;20029;-67
2021/04/01 16:07:57;;;;;;;35.70;23.70;;;;;;;19.38;42.31;100842.66;5068920;28;20021;-69
2021/04/01 16:10:22;;;;;;;33.42;25.52;;;;;;;18.92;43.47;100847.22;5076667;28;20035;-66
2021/04/01 16:12:47;;;;;;;40.65;25.90;;;;;;;18.46;44.92;100840.13;5077101;28;20028;-67
2021/04/01 16:15:13;;;;;;;34.22;24.88;;;;;;;18.27;45.25;100853.31;5076352;28;20033;-67
2021/04/01 16:17:38;;;;;;;32.45;23.83;;;;;;;18.20;45.42;100858.03;5082880;28;20113;-67
2021/04/01 16:20:06;;;;;;;32.55;23.83;;;;;;;18.44;45.33;100867.81;5081017;28;20024;-66
2021/04/01 16:22:31;;;;;;;38.35;23.08;;;;;;;18.04;45.73;100880.88;5078005;28;20021;-67
2021/04/01 16:24:56;;;;;;;30.52;21.10;;;;;;;17.68;46.32;100882.16;5082205;28;20028;-67
2021/04/01 16:27:22;;;;;;;31.55;21.05;;;;;;;17.43;46.84;100897.22;5063403;28;20047;-67
2021/04/01 16:29:49;;;;;;;33.67;23.40;;;;;;;17.48;47.15;100893.50;5077106;28;20027;-67
2021/04/01 16:32:17;;;;;;;31.75;21.58;;;;;;;17.58;46.72;100916.28;5074665;28;20021;-67
2021/04/01 16:34:43;;;;;;;28.50;21.58;;;;;;;17.81;46.13;100912.78;5076377;28;20105;-67
2021/04/01 16:37:09;;;;;;;33.20;22.00;;;;;;;17.69;46.68;100907.88;5075684;28;20782;-67
2021/04/01 16:39:35;;;;;;;31.92;21.70;;;;;;;17.37;47.22;100913.41;5062318;28;20124;-66
2021/04/01 16:42:02;;;;;;;27.92;20.55;;;;;;;17.05;47.44;100915.31;5072948;28;20020;-67
2021/04/01 16:44:27;;;;;;;30.38;21.00;;;;;;;16.34;49.19;100910.41;5073222;28;20372;-67
2021/04/01 16:46:53;;;;;;;29.48;21.15;;;;;;;16.21;49.42;100918.72;5079033;28;20031;-67
2021/04/01 16:49:18;;;;;;;26.70;19.90;;;;;;;16.09;49.98;100924.38;5074787;28;20095;-66
2021/04/01 16:51:51;;;;;;;34.50;20.48;;;;;;;16.18;49.54;100926.81;5078445;28;20051;-67
2021/04/01 16:54:18;;;;;;;27.45;20.58;;;;;;;16.24;49.17;100944.38;5065349;28;20036;-66
2021/04/01 16:56:50;;;;;;;27.75;19.95;;;;;;;15.89;50.12;100937.31;5061844;28;20392;-66
2021/04/01 16:59:17;;;;;;;25.88;18.65;;;;;;;15.77;50.25;100946.47;5057833;28;20028;-66
2021/04/01 17:01:42;;;;;;;26.27;19.23;;;;;;;15.65;50.69;100954.78;5058190;28;20047;-67
2021/04/01 17:04:08;;;;;;;26.35;18.75;;;;;;;15.52;50.33;100948.91;5057044;28;20373;-66
2021/04/01 17:06:33;;;;;;;33.17;20.23;;;;;;;15.32;50.70;100952.06;5060833;28;20100;-66
2021/04/01 17:08:58;;;;;;;26.27;18.42;;;;;;;15.45;50.59;100953.53;5058287;28;20465;-66
2021/04/01 17:11:24;;;;;;;27.95;18.90;;;;;;;15.15;51.13;100950.69;5063166;28;20385;-66
2021/04/01 17:13:49;;;;;;;27.63;18.98;;;;;;;14.84;52.40;100952.25;5060063;28;20483;-66
2021/04/01 17:16:14;;;;;;;28.13;18.73;;;;;;;14.78;52.73;100956.84;5059187;28;20025;-66
2021/04/01 17:18:40;;;;;;;23.85;17.55;;;;;;;14.76;52.48;100959.50;5065414;28;20032;-66
2021/04/01 17:21:06;;;;;;;26.65;17.75;;;;;;;15.04;51.97;100960.69;5069740;28;20024;-65
2021/04/01 17:23:31;;;;;;;24.27;18.20;;;;;;;14.62;53.24;100962.47;5058172;28;20025;-66
2021/04/01 17:25:57;;;;;;;26.10;16.73;;;;;;;14.41;53.74;100969.97;5064517;28;20041;-66
2021/04/01 17:28:22;;;;;;;30.13;17.85;;;;;;;14.38;53.59;100983.31;5062788;28;20039;-64
2021/04/01 17:30:48;;;;;;;21.60;15.85;;;;;;;14.18;54.04;100979.28;5071375;28;20111;-66
2021/04/01 17:33:14;;;;;;;23.25;16.10;;;;;;;13.98;54.98;100983.16;5061112;28;20040;-66
2021/04/01 17:35:40;;;;;;;23.60;15.30;;;;;;;14.12;54.51;100982.03;5056490;28;20031;-66
2021/04/01 17:38:06;;;;;;;20.40;14.85;;;;;;;13.67;55.04;100975.75;5062289;28;20028;-65
2021/04/01 17:40:33;;;;;;;23.33;14.73;;;;;;;13.72;54.69;100981.84;5057735;28;20034;-65
2021/04/01 17:42:58;;;;;;;20.35;13.40;;;;;;;13.83;54.27;100989.63;5067329;28;20016;-65
2021/04/01 17:45:23;;;;;;;20.70;13.25;;;;;;;13.77;53.93;100984.41;5064181;28;20074;-66
2021/04/01 17:47:49;;;;;;;17.42;12.90;;;;;;;13.40;54.80;100991.16;5063875;28;20056;-65
2021/04/01 17:50:15;;;;;;;19.60;13.45;;;;;;;13.37;54.97;100991.22;5057735;28;20055;-65
2021/04/01 17:52:40;;;;;;;15.20;11.63;;;;;;;12.94;55.70;100988.31;5063848;28;20086;-65
2021/04/01 17:55:08;;;;;;;15.45;11.85;;;;;;;13.07;55.24;100998.72;5064864;28;20444;-66
2021/04/01 17:57:36;;;;;;;15.30;11.30;;;;;;;13.28;54.24;100996.66;5057354;28;20071;-65
2021/04/01 18:00:22;;;;;;;15.80;10.88;;;;;;;12.85;54.95;101006.97;5063796;28;20039;-66
2021/04/01 18:02:56;;;;;;;14.82;10.35;;;;;;;12.88;54.72;101014.00;5052188;28;20585;-65
2021/04/01 18:05:31;;;;;;;13.52;9.75;;;;;;;12.80;54.92;101016.72;5055850;28;20105;-66
2021/04/01 18:24:34;;;;;;;13.15;8.82;;;;;;;12.44;54.53;101065.66;5058194;28;20046;-65
2021/04/01 18:29:43;;;;;;;9.32;7.05;;;;;;;12.55;53.01;101075.25;5058937;28;20094;-65
2021/04/01 18:32:11;;;;;;;7.53;6.72;;;;;;;12.04;53.23;101068.69;5066284;28;20051;-66
2021/04/01 18:34:44;;;;;;;8.40;5.63;;;;;;;11.97;53.24;101075.75;5051800;28;20037;-66
2021/04/01 18:37:29;;;;;;;6.88;5.53;;;;;;;11.99;52.81;101089.84;5062552;28;20372;-64
2021/04/01 18:42:31;;;;;;;6.40;5.80;;;;;;;12.14;52.50;101091.50;5061014;28;20036;-65
2021/04/01 18:45:00;;;;;;;8.23;6.90;;;;;;;12.15;51.71;101105.63;5054202;28;20072;-65
2021/04/01 18:47:36;;;;;;;10.25;6.50;;;;;;;12.29;52.20;101110.78;5060026;28;20032;-65
2021/04/01 18:50:02;;;;;;;8.75;6.45;;;;;;;11.72;54.08;101120.88;5059012;28;20043;-65
2021/04/01 18:52:35;;;;;;;9.63;7.32;;;;;;;11.71;54.24;101116.50;5054853;28;20028;-65
2021/04/01 18:57:50;;;;;;;10.88;9.30;;;;;;;11.88;54.91;101126.06;5058770;28;20462;-65
2021/04/01 19:00:19;;;;;;;11.65;9.00;;;;;;;11.76;54.95;101127.03;5058570;28;20036;-65
2021/04/01 19:02:45;;;;;;;9.63;7.82;;;;;;;11.39;55.92;101134.28;5062832;28;20024;-65
2021/04/01 19:05:17;;;;;;;10.68;8.25;;;;;;;11.51;55.51;101135.97;5058373;28;20280;-65
2021/04/01 19:07:46;;;;;;;10.55;7.78;;;;;;;11.40;55.59;101136.03;5055864;28;20035;-65
2021/04/01 19:10:21;;;;;;;10.70;7.80;;;;;;;11.41;54.94;101134.28;5059843;28;20470;-65
2021/04/01 19:24:28;;;;;;;6.57;5.97;;;;;;;11.40;53.92;101166.84;5053085;28;20098;-65
2021/04/01 19:26:54;;;;;;;15.50;6.38;;;;;;;11.44;53.57;101175.66;5056055;28;20555;-65
2021/04/01 19:29:20;;;;;;;6.05;5.45;;;;;;;11.49;52.85;101171.22;5056941;28;20032;-65
2021/04/01 19:31:46;;;;;;;5.90;5.30;;;;;;;11.28;54.13;101181.00;5058037;28;20025;-65
2021/04/01 19:34:11;;;;;;;7.82;5.60;;;;;;;11.27;54.70;101182.75;5044558;28;20038;-65
2021/04/01 19:36:37;;;;;;;6.68;4.60;;;;;;;11.32;54.70;101185.38;5041155;28;20453;-65
2021/04/01 19:39:06;;;;;;;4.93;4.28;;;;;;;11.88;53.46;101184.22;5037852;28;20028;-64
2021/04/01 19:41:32;;;;;;;4.50;4.10;;;;;;;11.42;54.40;101181.81;5059088;28;20434;-65
2021/04/01 19:43:58;;;;;;;4.82;4.43;;;;;;;11.50;54.95;101183.53;5058744;28;20087;-65
2021/04/01 19:46:24;;;;;;;4.38;3.90;;;;;;;11.33;55.33;101186.25;5034802;28;20039;-65
2021/04/01 19:48:50;;;;;;;4.75;4.30;;;;;;;11.36;55.86;101189.75;5044284;28;20024;-65
2021/04/01 19:51:16;;;;;;;5.78;5.18;;;;;;;11.78;54.79;101194.81;5052233;28;20187;-65
2021/04/01 19:53:43;;;;;;;31.40;20.00;;;;;;;11.61;54.83;101192.28;5054062;28;20559;-65
2021/04/01 19:56:09;;;;;;;6.57;5.97;;;;;;;11.91;53.88;101202.69;5054401;28;20060;-65
2021/04/01 19:58:36;;;;;;;5.72;4.65;;;;;;;11.33;55.12;101187.13;5055276;28;20112;-66